sensor_id;sensor_type;location;lat;lon;timestamp;temperature;humidity
37446;DHT22;23307;51.136;14.942;2022-11-15T00:01:29;10.70;99.90
37446;DHT22;23307;51.136;14.942;2022-11-15T00:04:00;10.70;99.90
37446;DHT22;23307;51.136;14.942;2022-11-15T00:06:27;10.70;99.90
37446;DHT22;23307;51.136;14.942;2022-11-15T00:08:53;10.70;99.90
37446;DHT22;23307;51.136;14.942;2022-11-15T00:11:18;10.60;99.90
37446;DHT22;23307;51.136;14.942;2022-11-15T00:13:44;10.60;99.90
37446;DHT22;23307;51.136;14.942;2022-11-15T00:16:10;10.70;99.90
37446;DHT22;23307;51.136;14.942;2022-11-15T00:18:36;10.70;99.90
37446;DHT22;23307;51.136;14.942;2022-11-15T00:21:05;10.70;99.90
37446;DHT22;23307;51.136;14.942;2022-11-15T00:23:40;10.70;99.90
37446;DHT22;23307;51.136;14.942;2022-11-15T00:26:14;10.70;99.90
37446;DHT22;23307;51.136;14.942;2022-11-15T00:28:43;10.80;99.90
37446;DHT22;23307;51.136;14.942;2022-11-15T00:31:16;10.70;99.90
37446;DHT22;23307;51.136;14.942;2022-11-15T00:33:45;10.70;99.90
37446;DHT22;23307;51.136;14.942;2022-11-15T00:36:13;10.70;99.90
37446;DHT22;23307;51.136;14.942;2022-11-15T00:38:40;10.70;99.90
37446;DHT22;23307;51.136;14.942;2022-11-15T00:41:12;10.70;99.90
37446;DHT22;23307;51.136;14.942;2022-11-15T00:43:38;10.70;99.90
37446;DHT22;23307;51.136;14.942;2022-11-15T00:46:15;10.70;99.90
37446;DHT22;23307;51.136;14.942;2022-11-15T00:48:44;10.70;99.90
37446;DHT22;23307;51.136;14.942;2022-11-15T00:51:09;10.70;99.90
37446;DHT22;23307;51.136;14.942;2022-11-15T00:53:38;10.70;99.90
37446;DHT22;23307;51.136;14.942;2022-11-15T00:56:14;10.70;99.90
37446;DHT22;23307;51.136;14.942;2022-11-15T00:58:40;10.70;99.90
37446;DHT22;23307;51.136;14.942;2022-11-15T01:01:14;10.70;99.90
37446;DHT22;23307;51.136;14.942;2022-11-15T01:03:40;10.70;99.90
37446;DHT22;23307;51.136;14.942;2022-11-15T01:06:07;10.70;99.90
37446;DHT22;23307;51.136;14.942;2022-11-15T01:08:37;10.80;99.90
37446;DHT22;23307;51.136;14.942;2022-11-15T01:11:11;10.70;99.90
37446;DHT22;23307;51.136;14.942;2022-11-15T01:13:43;10.70;99.90
37446;DHT22;23307;51.136;14.942;2022-11-15T01:16:15;10.70;99.90
37446;DHT22;23307;51.136;14.942;2022-11-15T01:18:47;10.70;99.90
37446;DHT22;23307;51.136;14.942;2022-11-15T01:21:18;10.70;99.90
37446;DHT22;23307;51.136;14.942;2022-11-15T01:23:55;10.60;99.90
37446;DHT22;23307;51.136;14.942;2022-11-15T01:26:21;10.60;99.90
37446;DHT22;23307;51.136;14.942;2022-11-15T01:29:01;10.60;99.90
37446;DHT22;23307;51.136;14.942;2022-11-15T01:31:29;10.60;99.90
37446;DHT22;23307;51.136;14.942;2022-11-15T01:34:03;10.60;99.90
37446;DHT22;23307;51.136;14.942;2022-11-15T01:36:35;10.50;99.90
37446;DHT22;23307;51.136;14.942;2022-11-15T01:39:09;10.50;99.90
37446;DHT22;23307;51.136;14.942;2022-11-15T01:41:38;10.40;99.90
37446;DHT22;23307;51.136;14.942;2022-11-15T01:50:07;10.30;99.90
37446;DHT22;23307;51.136;14.942;2022-11-15T01:52:42;10.30;99.90
37446;DHT22;23307;51.136;14.942;2022-11-15T01:55:20;10.20;99.90
37446;DHT22;23307;51.136;14.942;2022-11-15T01:57:49;10.20;99.90
37446;DHT22;23307;51.136;14.942;2022-11-15T02:00:16;10.20;99.90
37446;DHT22;23307;51.136;14.942;2022-11-15T02:02:45;10.20;99.90
37446;DHT22;23307;51.136;14.942;2022-11-15T02:05:15;10.20;99.90
37446;DHT22;23307;51.136;14.942;2022-11-15T02:07:40;10.20;99.90
37446;DHT22;23307;51.136;14.942;2022-11-15T02:10:12;10.10;99.90
37446;DHT22;23307;51.136;14.942;2022-11-15T02:12:39;10.10;99.90
37446;DHT22;23307;51.136;14.942;2022-11-15T02:15:07;10.10;99.90
37446;DHT22;23307;51.136;14.942;2022-11-15T02:17:47;10.10;99.90
37446;DHT22;23307;51.136;14.942;2022-11-15T02:31:24;10.20;99.90
37446;DHT22;23307;51.136;14.942;2022-11-15T02:34:22;10.10;99.90
37446;DHT22;23307;51.136;14.942;2022-11-15T02:39:34;10.10;99.90
37446;DHT22;23307;51.136;14.942;2022-11-15T02:42:08;10.10;99.90
37446;DHT22;23307;51.136;14.942;2022-11-15T02:44:56;10.10;99.90
37446;DHT22;23307;51.136;14.942;2022-11-15T02:47:24;10.10;99.90
37446;DHT22;23307;51.136;14.942;2022-11-15T02:49:54;10.10;99.90
37446;DHT22;23307;51.136;14.942;2022-11-15T02:52:24;10.00;99.90
37446;DHT22;23307;51.136;14.942;2022-11-15T02:54:57;10.00;99.90
37446;DHT22;23307;51.136;14.942;2022-11-15T03:00:20;10.00;99.90
37446;DHT22;23307;51.136;14.942;2022-11-15T03:03:09;9.90;99.90
37446;DHT22;23307;51.136;14.942;2022-11-15T03:05:48;9.90;99.90
37446;DHT22;23307;51.136;14.942;2022-11-15T03:13:36;9.80;99.90
37446;DHT22;23307;51.136;14.942;2022-11-15T03:16:15;9.80;99.90
37446;DHT22;23307;51.136;14.942;2022-11-15T03:18:53;9.80;99.90
37446;DHT22;23307;51.136;14.942;2022-11-15T03:21:21;9.70;99.90
37446;DHT22;23307;51.136;14.942;2022-11-15T03:23:49;9.70;99.90
37446;DHT22;23307;51.136;14.942;2022-11-15T03:26:17;9.70;99.90
37446;DHT22;23307;51.136;14.942;2022-11-15T03:28:50;9.70;99.90
37446;DHT22;23307;51.136;14.942;2022-11-15T03:31:19;9.70;99.90
37446;DHT22;23307;51.136;14.942;2022-11-15T03:34:07;9.70;99.90
37446;DHT22;23307;51.136;14.942;2022-11-15T03:36:35;9.70;99.90
37446;DHT22;23307;51.136;14.942;2022-11-15T03:39:05;9.70;99.90
37446;DHT22;23307;51.136;14.942;2022-11-15T03:41:39;9.70;99.90
37446;DHT22;23307;51.136;14.942;2022-11-15T03:44:38;9.70;99.90
37446;DHT22;23307;51.136;14.942;2022-11-15T03:49:45;9.60;99.90
37446;DHT22;23307;51.136;14.942;2022-11-15T03:52:12;9.60;99.90
37446;DHT22;23307;51.136;14.942;2022-11-15T03:54:48;9.60;99.90
37446;DHT22;23307;51.136;14.942;2022-11-15T03:57:14;9.60;99.90
37446;DHT22;23307;51.136;14.942;2022-11-15T03:59:39;9.60;99.90
37446;DHT22;23307;51.136;14.942;2022-11-15T04:02:05;9.60;99.90
37446;DHT22;23307;51.136;14.942;2022-11-15T04:04:30;9.50;99.90
37446;DHT22;23307;51.136;14.942;2022-11-15T04:06:56;9.60;99.90
37446;DHT22;23307;51.136;14.942;2022-11-15T04:09:21;9.50;99.90
37446;DHT22;23307;51.136;14.942;2022-11-15T04:11:47;9.50;99.90
37446;DHT22;23307;51.136;14.942;2022-11-15T04:14:16;9.50;99.90
37446;DHT22;23307;51.136;14.942;2022-11-15T04:16:44;9.50;99.90
37446;DHT22;23307;51.136;14.942;2022-11-15T04:19:10;9.50;99.90
37446;DHT22;23307;51.136;14.942;2022-11-15T04:22:03;9.50;99.90
37446;DHT22;23307;51.136;14.942;2022-11-15T04:24:50;9.50;99.90
37446;DHT22;23307;51.136;14.942;2022-11-15T04:27:16;9.50;99.90
37446;DHT22;23307;51.136;14.942;2022-11-15T04:29:42;9.50;99.90
37446;DHT22;23307;51.136;14.942;2022-11-15T04:32:08;9.50;99.90
37446;DHT22;23307;51.136;14.942;2022-11-15T04:34:37;9.50;99.90
37446;DHT22;23307;51.136;14.942;2022-11-15T04:37:03;9.50;99.90
37446;DHT22;23307;51.136;14.942;2022-11-15T04:39:44;9.50;99.90
37446;DHT22;23307;51.136;14.942;2022-11-15T04:42:13;9.50;99.90
37446;DHT22;23307;51.136;14.942;2022-11-15T04:44:38;9.40;99.90
37446;DHT22;23307;51.136;14.942;2022-11-15T04:47:10;9.40;99.90
37446;DHT22;23307;51.136;14.942;2022-11-15T04:49:47;9.40;99.90
37446;DHT22;23307;51.136;14.942;2022-11-15T04:52:15;9.40;99.90
37446;DHT22;23307;51.136;14.942;2022-11-15T04:54:41;9.30;99.90
37446;DHT22;23307;51.136;14.942;2022-11-15T04:57:10;9.40;99.90
37446;DHT22;23307;51.136;14.942;2022-11-15T04:59:42;9.40;99.90
37446;DHT22;23307;51.136;14.942;2022-11-15T05:02:22;9.40;99.90
37446;DHT22;23307;51.136;14.942;2022-11-15T05:04:48;9.30;99.90
37446;DHT22;23307;51.136;14.942;2022-11-15T05:07:23;9.30;99.90
37446;DHT22;23307;51.136;14.942;2022-11-15T05:09:49;9.30;99.90
37446;DHT22;23307;51.136;14.942;2022-11-15T05:12:24;9.30;99.90
37446;DHT22;23307;51.136;14.942;2022-11-15T05:14:49;9.30;99.90
37446;DHT22;23307;51.136;14.942;2022-11-15T05:17:15;9.30;99.90
37446;DHT22;23307;51.136;14.942;2022-11-15T05:19:46;9.30;99.90
37446;DHT22;23307;51.136;14.942;2022-11-15T05:22:12;9.30;99.90
37446;DHT22;23307;51.136;14.942;2022-11-15T05:24:40;9.30;99.90
37446;DHT22;23307;51.136;14.942;2022-11-15T05:27:06;9.30;99.90
37446;DHT22;23307;51.136;14.942;2022-11-15T05:29:34;9.30;99.90
37446;DHT22;23307;51.136;14.942;2022-11-15T05:32:09;9.30;99.90
37446;DHT22;23307;51.136;14.942;2022-11-15T05:34:42;9.30;99.90
37446;DHT22;23307;51.136;14.942;2022-11-15T05:40:31;9.40;99.90
37446;DHT22;23307;51.136;14.942;2022-11-15T05:43:00;9.40;99.90
37446;DHT22;23307;51.136;14.942;2022-11-15T05:45:28;9.40;99.90
37446;DHT22;23307;51.136;14.942;2022-11-15T05:47:55;9.40;99.90
37446;DHT22;23307;51.136;14.942;2022-11-15T05:50:22;9.40;99.90
37446;DHT22;23307;51.136;14.942;2022-11-15T05:52:48;9.40;99.90
37446;DHT22;23307;51.136;14.942;2022-11-15T05:55:14;9.40;99.90
37446;DHT22;23307;51.136;14.942;2022-11-15T05:57:40;9.40;99.90
37446;DHT22;23307;51.136;14.942;2022-11-15T06:00:06;9.40;99.90
37446;DHT22;23307;51.136;14.942;2022-11-15T06:02:33;9.40;99.90
37446;DHT22;23307;51.136;14.942;2022-11-15T06:04:58;9.40;99.90
37446;DHT22;23307;51.136;14.942;2022-11-15T06:07:24;9.30;99.90
37446;DHT22;23307;51.136;14.942;2022-11-15T06:09:49;9.40;99.90
37446;DHT22;23307;51.136;14.942;2022-11-15T06:12:15;9.40;99.90
37446;DHT22;23307;51.136;14.942;2022-11-15T06:14:40;9.40;99.90
37446;DHT22;23307;51.136;14.942;2022-11-15T06:17:06;9.40;99.90
37446;DHT22;23307;51.136;14.942;2022-11-15T06:19:31;9.50;99.90
37446;DHT22;23307;51.136;14.942;2022-11-15T06:21:59;9.50;99.90
37446;DHT22;23307;51.136;14.942;2022-11-15T06:24:25;9.50;99.90
37446;DHT22;23307;51.136;14.942;2022-11-15T06:26:50;9.50;99.90
37446;DHT22;23307;51.136;14.942;2022-11-15T06:29:16;9.60;99.90
37446;DHT22;23307;51.136;14.942;2022-11-15T06:31:42;9.60;99.90
37446;DHT22;23307;51.136;14.942;2022-11-15T06:34:07;9.60;99.90
37446;DHT22;23307;51.136;14.942;2022-11-15T06:36:34;9.50;99.90
37446;DHT22;23307;51.136;14.942;2022-11-15T06:39:00;9.50;99.90
37446;DHT22;23307;51.136;14.942;2022-11-15T06:41:25;9.50;99.90
37446;DHT22;23307;51.136;14.942;2022-11-15T06:43:51;9.50;99.90
37446;DHT22;23307;51.136;14.942;2022-11-15T06:46:17;9.50;99.90
37446;DHT22;23307;51.136;14.942;2022-11-15T06:48:42;9.50;99.90
37446;DHT22;23307;51.136;14.942;2022-11-15T06:51:08;9.50;99.90
37446;DHT22;23307;51.136;14.942;2022-11-15T06:53:33;9.50;99.90
37446;DHT22;23307;51.136;14.942;2022-11-15T06:56:03;9.60;99.90
37446;DHT22;23307;51.136;14.942;2022-11-15T06:58:29;9.60;99.90
37446;DHT22;23307;51.136;14.942;2022-11-15T07:01:06;9.60;99.90
37446;DHT22;23307;51.136;14.942;2022-11-15T07:03:35;9.60;99.90
37446;DHT22;23307;51.136;14.942;2022-11-15T07:06:01;9.60;99.90
37446;DHT22;23307;51.136;14.942;2022-11-15T07:08:28;9.60;99.90
37446;DHT22;23307;51.136;14.942;2022-11-15T07:10:55;9.70;99.90
37446;DHT22;23307;51.136;14.942;2022-11-15T07:13:26;9.70;99.90
37446;DHT22;23307;51.136;14.942;2022-11-15T07:15:52;9.70;99.90
37446;DHT22;23307;51.136;14.942;2022-11-15T07:18:18;9.80;99.90
37446;DHT22;23307;51.136;14.942;2022-11-15T07:20:43;9.80;99.90
37446;DHT22;23307;51.136;14.942;2022-11-15T07:23:09;9.90;99.90
37446;DHT22;23307;51.136;14.942;2022-11-15T07:25:34;9.90;99.90
37446;DHT22;23307;51.136;14.942;2022-11-15T07:28:00;10.00;99.90
37446;DHT22;23307;51.136;14.942;2022-11-15T07:30:26;10.00;99.90
37446;DHT22;23307;51.136;14.942;2022-11-15T07:32:56;10.00;99.90
37446;DHT22;23307;51.136;14.942;2022-11-15T07:35:23;10.10;99.90
37446;DHT22;23307;51.136;14.942;2022-11-15T07:37:59;10.10;99.90
37446;DHT22;23307;51.136;14.942;2022-11-15T07:40:26;10.10;99.90
37446;DHT22;23307;51.136;14.942;2022-11-15T07:42:52;10.10;99.90
37446;DHT22;23307;51.136;14.942;2022-11-15T07:45:18;10.10;99.90
37446;DHT22;23307;51.136;14.942;2022-11-15T07:47:47;10.10;99.90
37446;DHT22;23307;51.136;14.942;2022-11-15T07:50:13;10.10;99.90
37446;DHT22;23307;51.136;14.942;2022-11-15T07:52:39;10.10;99.90
37446;DHT22;23307;51.136;14.942;2022-11-15T07:55:04;10.10;99.90
37446;DHT22;23307;51.136;14.942;2022-11-15T07:57:30;10.10;99.90
37446;DHT22;23307;51.136;14.942;2022-11-15T07:59:56;10.20;99.90
37446;DHT22;23307;51.136;14.942;2022-11-15T08:02:21;10.20;99.90
37446;DHT22;23307;51.136;14.942;2022-11-15T08:04:47;10.30;99.90
37446;DHT22;23307;51.136;14.942;2022-11-15T08:07:13;10.30;99.90
37446;DHT22;23307;51.136;14.942;2022-11-15T08:09:38;10.30;99.90
37446;DHT22;23307;51.136;14.942;2022-11-15T08:12:04;10.40;99.90
37446;DHT22;23307;51.136;14.942;2022-11-15T08:14:30;10.40;99.90
37446;DHT22;23307;51.136;14.942;2022-11-15T08:16:55;10.40;99.90
37446;DHT22;23307;51.136;14.942;2022-11-15T08:19:21;10.40;99.90
37446;DHT22;23307;51.136;14.942;2022-11-15T08:21:46;10.40;99.90
37446;DHT22;23307;51.136;14.942;2022-11-15T08:24:12;10.40;99.90
37446;DHT22;23307;51.136;14.942;2022-11-15T08:26:38;10.50;99.90
37446;DHT22;23307;51.136;14.942;2022-11-15T08:29:03;10.50;99.90
37446;DHT22;23307;51.136;14.942;2022-11-15T08:31:29;10.50;99.90
37446;DHT22;23307;51.136;14.942;2022-11-15T08:33:54;10.60;99.90
37446;DHT22;23307;51.136;14.942;2022-11-15T08:36:20;10.60;99.90
37446;DHT22;23307;51.136;14.942;2022-11-15T08:38:46;10.60;99.90
37446;DHT22;23307;51.136;14.942;2022-11-15T08:41:15;10.70;99.90
37446;DHT22;23307;51.136;14.942;2022-11-15T08:43:43;10.70;99.90
37446;DHT22;23307;51.136;14.942;2022-11-15T08:46:11;10.80;99.90
37446;DHT22;23307;51.136;14.942;2022-11-15T08:48:38;10.80;99.90
37446;DHT22;23307;51.136;14.942;2022-11-15T08:51:03;10.80;99.90
37446;DHT22;23307;51.136;14.942;2022-11-15T08:53:29;10.90;99.90
37446;DHT22;23307;51.136;14.942;2022-11-15T08:55:54;10.90;99.90
37446;DHT22;23307;51.136;14.942;2022-11-15T08:58:20;11.00;99.90
37446;DHT22;23307;51.136;14.942;2022-11-15T09:00:46;11.10;99.90
37446;DHT22;23307;51.136;14.942;2022-11-15T09:03:11;11.20;99.90
37446;DHT22;23307;51.136;14.942;2022-11-15T09:05:37;11.30;99.90
37446;DHT22;23307;51.136;14.942;2022-11-15T09:08:03;11.30;99.90
37446;DHT22;23307;51.136;14.942;2022-11-15T09:10:29;11.30;99.90
37446;DHT22;23307;51.136;14.942;2022-11-15T09:12:57;11.40;99.90
37446;DHT22;23307;51.136;14.942;2022-11-15T09:15:22;11.40;99.90
37446;DHT22;23307;51.136;14.942;2022-11-15T09:17:48;11.50;99.90
37446;DHT22;23307;51.136;14.942;2022-11-15T09:20:14;11.50;99.90
37446;DHT22;23307;51.136;14.942;2022-11-15T09:22:40;11.60;99.90
37446;DHT22;23307;51.136;14.942;2022-11-15T09:25:06;11.70;99.90
37446;DHT22;23307;51.136;14.942;2022-11-15T09:27:32;11.70;99.90
37446;DHT22;23307;51.136;14.942;2022-11-15T09:29:57;11.90;99.90
37446;DHT22;23307;51.136;14.942;2022-11-15T09:32:23;11.90;99.90
37446;DHT22;23307;51.136;14.942;2022-11-15T09:34:52;12.00;99.90
37446;DHT22;23307;51.136;14.942;2022-11-15T09:37:17;12.00;99.90
37446;DHT22;23307;51.136;14.942;2022-11-15T09:39:43;12.00;99.90
37446;DHT22;23307;51.136;14.942;2022-11-15T09:44:42;12.20;99.90
37446;DHT22;23307;51.136;14.942;2022-11-15T09:47:38;12.20;99.90
37446;DHT22;23307;51.136;14.942;2022-11-15T09:50:14;12.30;99.90
37446;DHT22;23307;51.136;14.942;2022-11-15T09:52:43;12.20;99.90
37446;DHT22;23307;51.136;14.942;2022-11-15T09:55:14;12.30;99.90
37446;DHT22;23307;51.136;14.942;2022-11-15T09:57:54;12.40;99.90
37446;DHT22;23307;51.136;14.942;2022-11-15T10:00:31;12.40;99.90
37446;DHT22;23307;51.136;14.942;2022-11-15T10:03:34;12.50;99.90
37446;DHT22;23307;51.136;14.942;2022-11-15T10:06:02;12.50;99.90
37446;DHT22;23307;51.136;14.942;2022-11-15T10:11:19;12.70;99.90
37446;DHT22;23307;51.136;14.942;2022-11-15T10:13:47;12.70;99.90
37446;DHT22;23307;51.136;14.942;2022-11-15T10:21:20;13.00;99.90
37446;DHT22;23307;51.136;14.942;2022-11-15T10:23:47;13.10;99.90
37446;DHT22;23307;51.136;14.942;2022-11-15T10:26:16;13.20;99.90
37446;DHT22;23307;51.136;14.942;2022-11-15T10:28:42;13.20;99.90
37446;DHT22;23307;51.136;14.942;2022-11-15T10:31:25;13.30;99.90
37446;DHT22;23307;51.136;14.942;2022-11-15T10:34:05;13.40;99.90
37446;DHT22;23307;51.136;14.942;2022-11-15T10:36:36;13.50;99.90
37446;DHT22;23307;51.136;14.942;2022-11-15T10:39:03;13.50;99.90
37446;DHT22;23307;51.136;14.942;2022-11-15T10:41:30;13.60;99.90
37446;DHT22;23307;51.136;14.942;2022-11-15T10:44:06;13.70;99.90
37446;DHT22;23307;51.136;14.942;2022-11-15T10:46:35;13.70;99.90
37446;DHT22;23307;51.136;14.942;2022-11-15T10:51:42;14.00;99.90
37446;DHT22;23307;51.136;14.942;2022-11-15T10:54:10;14.10;99.90
37446;DHT22;23307;51.136;14.942;2022-11-15T10:56:39;14.10;99.90
37446;DHT22;23307;51.136;14.942;2022-11-15T10:59:20;14.20;99.90
37446;DHT22;23307;51.136;14.942;2022-11-15T11:01:48;14.20;99.90
37446;DHT22;23307;51.136;14.942;2022-11-15T11:04:14;14.20;99.90
37446;DHT22;23307;51.136;14.942;2022-11-15T11:06:57;14.20;99.90
37446;DHT22;23307;51.136;14.942;2022-11-15T11:09:33;14.30;99.90
37446;DHT22;23307;51.136;14.942;2022-11-15T11:12:00;14.30;99.90
37446;DHT22;23307;51.136;14.942;2022-11-15T11:14:28;14.40;99.90
37446;DHT22;23307;51.136;14.942;2022-11-15T11:27:32;14.50;99.90
37446;DHT22;23307;51.136;14.942;2022-11-15T11:30:17;14.50;99.90
37446;DHT22;23307;51.136;14.942;2022-11-15T11:32:56;14.60;99.90
37446;DHT22;23307;51.136;14.942;2022-11-15T11:38:07;14.60;99.90
37446;DHT22;23307;51.136;14.942;2022-11-15T11:40:43;14.60;99.90
37446;DHT22;23307;51.136;14.942;2022-11-15T11:52:22;14.90;99.90
37446;DHT22;23307;51.136;14.942;2022-11-15T11:58:09;15.20;99.90
37446;DHT22;23307;51.136;14.942;2022-11-15T12:00:47;15.30;99.90
37446;DHT22;23307;51.136;14.942;2022-11-15T12:03:34;15.40;99.90
37446;DHT22;23307;51.136;14.942;2022-11-15T12:06:04;15.40;99.90
37446;DHT22;23307;51.136;14.942;2022-11-15T12:14:02;15.50;99.90
37446;DHT22;23307;51.136;14.942;2022-11-15T12:16:31;15.50;99.90
37446;DHT22;23307;51.136;14.942;2022-11-15T12:19:01;15.60;99.90
37446;DHT22;23307;51.136;14.942;2022-11-15T12:21:44;15.70;99.90
37446;DHT22;23307;51.136;14.942;2022-11-15T12:29:37;16.00;99.90
37446;DHT22;23307;51.136;14.942;2022-11-15T12:32:05;16.20;99.90
37446;DHT22;23307;51.136;14.942;2022-11-15T12:34:44;16.30;99.90
37446;DHT22;23307;51.136;14.942;2022-11-15T12:45:00;16.50;99.90
37446;DHT22;23307;51.136;14.942;2022-11-15T12:47:27;16.60;99.90
37446;DHT22;23307;51.136;14.942;2022-11-15T12:49:52;16.60;99.90
37446;DHT22;23307;51.136;14.942;2022-11-15T12:52:19;16.60;99.90
37446;DHT22;23307;51.136;14.942;2022-11-15T12:54:53;16.60;99.90
37446;DHT22;23307;51.136;14.942;2022-11-15T12:59:57;16.60;99.90
37446;DHT22;23307;51.136;14.942;2022-11-15T13:02:41;16.40;99.90
37446;DHT22;23307;51.136;14.942;2022-11-15T13:17:45;16.30;99.90
37446;DHT22;23307;51.136;14.942;2022-11-15T13:23:08;16.10;99.90
37446;DHT22;23307;51.136;14.942;2022-11-15T13:31:27;15.70;99.90
37446;DHT22;23307;51.136;14.942;2022-11-15T13:33:59;15.80;99.90
37446;DHT22;23307;51.136;14.942;2022-11-15T13:36:29;15.80;99.90
37446;DHT22;23307;51.136;14.942;2022-11-15T13:39:04;15.80;99.90
37446;DHT22;23307;51.136;14.942;2022-11-15T13:41:35;15.50;99.90
37446;DHT22;23307;51.136;14.942;2022-11-15T13:44:03;15.00;99.90
37446;DHT22;23307;51.136;14.942;2022-11-15T13:46:32;14.70;99.90
37446;DHT22;23307;51.136;14.942;2022-11-15T13:49:08;14.20;99.90
37446;DHT22;23307;51.136;14.942;2022-11-15T13:51:37;13.90;99.90
37446;DHT22;23307;51.136;14.942;2022-11-15T13:54:15;13.70;99.90
37446;DHT22;23307;51.136;14.942;2022-11-15T13:56:44;13.40;99.90
37446;DHT22;23307;51.136;14.942;2022-11-15T13:59:18;13.20;99.90
37446;DHT22;23307;51.136;14.942;2022-11-15T14:01:46;12.90;99.90
37446;DHT22;23307;51.136;14.942;2022-11-15T14:04:13;12.70;99.90
37446;DHT22;23307;51.136;14.942;2022-11-15T14:06:55;12.60;99.90
37446;DHT22;23307;51.136;14.942;2022-11-15T14:09:37;12.50;99.90
37446;DHT22;23307;51.136;14.942;2022-11-15T14:14:47;12.40;99.90
37446;DHT22;23307;51.136;14.942;2022-11-15T14:17:35;12.30;99.90
37446;DHT22;23307;51.136;14.942;2022-11-15T14:20:01;12.40;99.90
37446;DHT22;23307;51.136;14.942;2022-11-15T14:22:28;12.40;99.90
37446;DHT22;23307;51.136;14.942;2022-11-15T14:27:38;12.40;99.90
37446;DHT22;23307;51.136;14.942;2022-11-15T14:30:04;12.30;99.90
37446;DHT22;23307;51.136;14.942;2022-11-15T14:35:19;12.10;99.90
37446;DHT22;23307;51.136;14.942;2022-11-15T14:37:45;12.10;99.90
37446;DHT22;23307;51.136;14.942;2022-11-15T14:40:17;12.00;99.90
37446;DHT22;23307;51.136;14.942;2022-11-15T14:42:44;11.90;99.90
37446;DHT22;23307;51.136;14.942;2022-11-15T14:45:19;11.90;99.90
37446;DHT22;23307;51.136;14.942;2022-11-15T14:47:44;11.90;99.90
37446;DHT22;23307;51.136;14.942;2022-11-15T14:50:18;11.80;99.90
37446;DHT22;23307;51.136;14.942;2022-11-15T14:52:44;11.70;99.90
37446;DHT22;23307;51.136;14.942;2022-11-15T14:55:29;11.70;99.90
37446;DHT22;23307;51.136;14.942;2022-11-15T14:57:56;11.70;99.90
37446;DHT22;23307;51.136;14.942;2022-11-15T15:00:22;11.60;99.90
37446;DHT22;23307;51.136;14.942;2022-11-15T15:02:48;11.50;99.90
37446;DHT22;23307;51.136;14.942;2022-11-15T15:05:20;11.50;99.90
37446;DHT22;23307;51.136;14.942;2022-11-15T15:07:46;11.40;99.90
37446;DHT22;23307;51.136;14.942;2022-11-15T15:10:13;11.30;99.90
37446;DHT22;23307;51.136;14.942;2022-11-15T15:12:39;11.30;99.90
37446;DHT22;23307;51.136;14.942;2022-11-15T15:15:05;11.20;99.90
37446;DHT22;23307;51.136;14.942;2022-11-15T15:17:31;11.10;99.90
37446;DHT22;23307;51.136;14.942;2022-11-15T15:19:56;11.10;99.90
37446;DHT22;23307;51.136;14.942;2022-11-15T15:22:30;11.10;99.90
37446;DHT22;23307;51.136;14.942;2022-11-15T15:24:56;11.10;99.90
37446;DHT22;23307;51.136;14.942;2022-11-15T15:27:22;11.10;99.90
37446;DHT22;23307;51.136;14.942;2022-11-15T15:29:47;11.00;99.90
37446;DHT22;23307;51.136;14.942;2022-11-15T15:32:13;10.90;99.90
37446;DHT22;23307;51.136;14.942;2022-11-15T15:34:38;10.80;99.90
37446;DHT22;23307;51.136;14.942;2022-11-15T15:37:11;10.70;99.90
37446;DHT22;23307;51.136;14.942;2022-11-15T15:39:44;10.60;99.90
37446;DHT22;23307;51.136;14.942;2022-11-15T15:42:10;10.60;99.90
37446;DHT22;23307;51.136;14.942;2022-11-15T15:44:35;10.60;99.90
37446;DHT22;23307;51.136;14.942;2022-11-15T15:47:01;10.50;99.90
37446;DHT22;23307;51.136;14.942;2022-11-15T15:49:26;10.40;99.90
37446;DHT22;23307;51.136;14.942;2022-11-15T15:51:52;10.30;99.90
37446;DHT22;23307;51.136;14.942;2022-11-15T15:54:17;10.10;99.90
37446;DHT22;23307;51.136;14.942;2022-11-15T15:56:43;10.00;99.90
37446;DHT22;23307;51.136;14.942;2022-11-15T15:59:08;10.00;99.90
37446;DHT22;23307;51.136;14.942;2022-11-15T16:01:34;9.90;99.90
37446;DHT22;23307;51.136;14.942;2022-11-15T16:03:59;9.80;99.90
37446;DHT22;23307;51.136;14.942;2022-11-15T16:06:39;9.70;99.90
37446;DHT22;23307;51.136;14.942;2022-11-15T16:09:08;9.60;99.90
37446;DHT22;23307;51.136;14.942;2022-11-15T16:11:34;9.60;99.90
37446;DHT22;23307;51.136;14.942;2022-11-15T16:14:00;9.60;99.90
37446;DHT22;23307;51.136;14.942;2022-11-15T16:16:29;9.50;99.90
37446;DHT22;23307;51.136;14.942;2022-11-15T16:18:54;9.50;99.90
37446;DHT22;23307;51.136;14.942;2022-11-15T16:21:20;9.60;99.90
37446;DHT22;23307;51.136;14.942;2022-11-15T16:23:45;9.70;99.90
37446;DHT22;23307;51.136;14.942;2022-11-15T16:26:22;9.60;99.90
37446;DHT22;23307;51.136;14.942;2022-11-15T16:28:49;9.60;99.90
37446;DHT22;23307;51.136;14.942;2022-11-15T16:31:14;9.70;99.90
37446;DHT22;23307;51.136;14.942;2022-11-15T16:33:42;9.70;99.90
37446;DHT22;23307;51.136;14.942;2022-11-15T16:36:34;9.70;99.90
37446;DHT22;23307;51.136;14.942;2022-11-15T16:39:00;9.60;99.90
37446;DHT22;23307;51.136;14.942;2022-11-15T16:41:29;9.50;99.90
37446;DHT22;23307;51.136;14.942;2022-11-15T16:43:55;9.40;99.90
37446;DHT22;23307;51.136;14.942;2022-11-15T16:46:23;9.40;99.90
37446;DHT22;23307;51.136;14.942;2022-11-15T16:48:49;9.20;99.90
37446;DHT22;23307;51.136;14.942;2022-11-15T16:51:15;9.10;99.90
37446;DHT22;23307;51.136;14.942;2022-11-15T16:53:41;9.10;99.90
37446;DHT22;23307;51.136;14.942;2022-11-15T16:56:26;9.20;99.90
37446;DHT22;23307;51.136;14.942;2022-11-15T16:58:53;9.20;99.90
37446;DHT22;23307;51.136;14.942;2022-11-15T17:01:32;9.10;99.90
37446;DHT22;23307;51.136;14.942;2022-11-15T17:03:58;9.10;99.90
37446;DHT22;23307;51.136;14.942;2022-11-15T17:06:25;9.10;99.90
37446;DHT22;23307;51.136;14.942;2022-11-15T17:08:51;9.10;99.90
37446;DHT22;23307;51.136;14.942;2022-11-15T17:11:19;9.00;99.90
37446;DHT22;23307;51.136;14.942;2022-11-15T17:13:45;9.00;99.90
37446;DHT22;23307;51.136;14.942;2022-11-15T17:16:15;8.90;99.90
37446;DHT22;23307;51.136;14.942;2022-11-15T17:18:42;8.90;99.90
37446;DHT22;23307;51.136;14.942;2022-11-15T17:21:14;8.90;99.90
37446;DHT22;23307;51.136;14.942;2022-11-15T17:23:41;8.90;99.90
37446;DHT22;23307;51.136;14.942;2022-11-15T17:26:08;8.90;99.90
37446;DHT22;23307;51.136;14.942;2022-11-15T17:28:36;8.80;99.90
37446;DHT22;23307;51.136;14.942;2022-11-15T17:31:06;8.70;99.90
37446;DHT22;23307;51.136;14.942;2022-11-15T17:33:32;8.70;99.90
37446;DHT22;23307;51.136;14.942;2022-11-15T17:36:00;8.60;99.90
37446;DHT22;23307;51.136;14.942;2022-11-15T17:38:27;8.60;99.90
37446;DHT22;23307;51.136;14.942;2022-11-15T17:41:03;8.50;99.90